Time;durP1;ratioP1;P1;durP2;ratioP2;P2;SDS_P1;SDS_P2;PMS_P1;PMS_P2;Temp;Humidity;BMP_temperature;BMP_pressure;BME280_temperature;BME280_humidity;BME280_pressure;Samples;Min_cycle;Max_cycle;Signal;HPM_P1;HPM_P2
2022/05/19 00:01:01;;;;;;;9.70;3.70;;;;;;;;;;6265108;28;20017;-81
2022/05/19 00:03:58;;;;;;;6.65;4.35;;;;;;;;;;6270867;28;20032;-80
2022/05/19 00:06:58;;;;;;;14.32;4.40;;;;;;;;;;6274748;28;20013;-80
2022/05/19 00:09:59;;;;;;;11.40;4.00;;;;;;;;;;6271074;28;20025;-80
2022/05/19 00:12:59;;;;;;;10.75;3.83;;;;;;;;;;6269437;28;20020;-81
2022/05/19 00:16:00;;;;;;;11.55;5.68;;;;;;;;;;6256114;28;20390;-81
2022/05/19 00:19:00;;;;;;;12.77;4.95;;;;;;;;;;6271891;28;20047;-81
2022/05/19 00:22:01;;;;;;;14.43;5.43;;;;;;;;;;6270195;28;20029;-81
2022/05/19 00:25:02;;;;;;;17.13;4.18;;;;;;;;;;6272316;28;20021;-80
2022/05/19 00:28:03;;;;;;;10.02;4.10;;;;;;;;;;6258731;28;20047;-80
2022/05/19 00:31:03;;;;;;;10.82;3.78;;;;;;;;;;6259430;28;20036;-80
2022/05/19 00:34:04;;;;;;;9.40;4.32;;;;;;;;;;6273590;28;20013;-81
2022/05/19 00:37:05;;;;;;;6.22;3.83;;;;;;;;;;6272152;28;20017;-79
2022/05/19 00:40:07;;;;;;;12.38;4.38;;;;;;;;;;6271509;28;20022;-80
2022/05/19 00:43:08;;;;;;;11.13;3.72;;;;;;;;;;6268901;28;20029;-80
2022/05/19 00:46:14;;;;;;;9.45;3.75;;;;;;;;;;6256541;28;20108;-80
2022/05/19 00:49:15;;;;;;;11.93;4.10;;;;;;;;;;6250616;28;20538;-80
2022/05/19 00:52:21;;;;;;;8.17;4.13;;;;;;;;;;6249408;28;20025;-80
2022/05/19 00:55:28;;;;;;;9.55;4.65;;;;;;;;;;6247981;28;20784;-80
2022/05/19 00:58:36;;;;;;;18.27;4.43;;;;;;;;;;6248698;28;20558;-80
2022/05/19 01:01:38;;;;;;;10.35;4.28;;;;;;;;;;6249762;28;20032;-80
2022/05/19 01:04:43;;;;;;;15.73;5.00;;;;;;;;;;6250183;28;20029;-80
2022/05/19 01:07:43;;;;;;;9.90;4.68;;;;;;;;;;6250726;28;20064;-80
2022/05/19 01:10:44;;;;;;;11.33;4.33;;;;;;;;;;6234978;28;20098;-80
2022/05/19 01:13:44;;;;;;;10.90;4.75;;;;;;;;;;6249610;28;20877;-80
2022/05/19 01:16:45;;;;;;;13.50;4.03;;;;;;;;;;6250484;28;20518;-80
2022/05/19 01:19:52;;;;;;;11.75;4.32;;;;;;;;;;6250135;28;20108;-80
2022/05/19 01:22:55;;;;;;;13.23;4.75;;;;;;;;;;6240876;28;20434;-80
2022/05/19 01:26:14;;;;;;;9.80;4.88;;;;;;;;;;6246225;28;20029;-80
2022/05/19 01:29:17;;;;;;;17.15;5.43;;;;;;;;;;6242814;28;20114;-80
2022/05/19 01:32:27;;;;;;;15.00;4.53;;;;;;;;;;6249882;28;20080;-81
2022/05/19 01:35:33;;;;;;;9.23;4.00;;;;;;;;;;6249949;28;20035;-80
2022/05/19 01:38:33;;;;;;;13.32;4.90;;;;;;;;;;6249683;28;20480;-80
2022/05/19 01:41:52;;;;;;;11.20;4.50;;;;;;;;;;6250664;28;20017;-81
2022/05/19 01:44:57;;;;;;;14.82;4.43;;;;;;;;;;6244880;28;20056;-80
2022/05/19 01:48:00;;;;;;;8.50;4.20;;;;;;;;;;6239293;28;20022;-81
2022/05/19 01:51:13;;;;;;;10.57;4.07;;;;;;;;;;6247613;28;20017;-81
2022/05/19 01:54:13;;;;;;;;;;;;;;;;;;6248808;28;20075;-80
2022/05/19 01:57:13;;;;;;;9.00;4.25;;;;;;;;;;6246667;28;20231;-80
2022/05/19 02:00:21;;;;;;;10.53;4.53;;;;;;;;;;6246900;28;20021;-80
2022/05/19 02:03:28;;;;;;;10.80;4.78;;;;;;;;;;6247857;28;20764;-80
2022/05/19 02:06:35;;;;;;;11.75;4.63;;;;;;;;;;6247452;28;20072;-80
2022/05/19 02:09:50;;;;;;;14.95;6.97;;;;;;;;;;6246046;28;20026;-80
2022/05/19 02:12:51;;;;;;;16.35;4.32;;;;;;;;;;6248578;28;20025;-80
2022/05/19 02:15:52;;;;;;;12.77;4.18;;;;;;;;;;6247781;28;20032;-79
2022/05/19 02:18:52;;;;;;;10.90;4.05;;;;;;;;;;6247184;28;20468;-79
2022/05/19 02:21:54;;;;;;;16.50;4.45;;;;;;;;;;6248534;28;20028;-79
2022/05/19 02:24:56;;;;;;;8.82;3.55;;;;;;;;;;6244289;28;20025;-79
2022/05/19 02:27:59;;;;;;;8.23;3.90;;;;;;;;;;6245614;28;20056;-79
2022/05/19 02:31:00;;;;;;;10.95;4.25;;;;;;;;;;6243468;28;20032;-79
2022/05/19 02:34:01;;;;;;;12.40;5.32;;;;;;;;;;6246833;28;20366;-79
2022/05/19 02:37:01;;;;;;;21.58;4.60;;;;;;;;;;6248390;28;20363;-80
2022/05/19 02:40:01;;;;;;;9.77;4.10;;;;;;;;;;6249547;28;20014;-79
2022/05/19 02:43:02;;;;;;;13.57;5.40;;;;;;;;;;6248659;28;20465;-79
2022/05/19 02:46:02;;;;;;;11.75;5.90;;;;;;;;;;6246737;28;20048;-79
2022/05/19 02:49:03;;;;;;;20.48;6.18;;;;;;;;;;6245820;28;20032;-79
2022/05/19 02:52:03;;;;;;;13.50;4.90;;;;;;;;;;6246432;28;20087;-79
2022/05/19 02:55:04;;;;;;;12.90;4.68;;;;;;;;;;6246751;28;20079;-78
2022/05/19 02:58:05;;;;;;;9.07;4.10;;;;;;;;;;6247588;28;20025;-80
2022/05/19 03:01:07;;;;;;;12.85;4.35;;;;;;;;;;6247890;28;20523;-79
2022/05/19 03:04:07;;;;;;;12.95;4.45;;;;;;;;;;6247266;28;20025;-79
2022/05/19 03:07:07;;;;;;;9.90;4.53;;;;;;;;;;6245729;28;20028;-79
2022/05/19 03:10:08;;;;;;;12.70;4.53;;;;;;;;;;6247367;28;20022;-79
2022/05/19 03:13:15;;;;;;;11.68;4.22;;;;;;;;;;6246764;28;20112;-79
2022/05/19 03:16:15;;;;;;;15.02;4.80;;;;;;;;;;6247596;28;20029;-79
2022/05/19 03:19:16;;;;;;;13.63;4.40;;;;;;;;;;6248158;28;20398;-80
2022/05/19 03:22:16;;;;;;;9.05;4.18;;;;;;;;;;6245558;28;20041;-80
2022/05/19 03:25:16;;;;;;;10.95;3.92;;;;;;;;;;6248275;28;20389;-80
2022/05/19 03:28:17;;;;;;;12.52;4.65;;;;;;;;;;6239240;28;20028;-80
2022/05/19 03:31:17;;;;;;;16.17;4.68;;;;;;;;;;6247869;28;20033;-80
2022/05/19 03:34:18;;;;;;;12.60;3.95;;;;;;;;;;6237460;28;20022;-80
2022/05/19 03:37:18;;;;;;;10.05;3.70;;;;;;;;;;6244448;28;20079;-80
2022/05/19 03:40:18;;;;;;;9.15;4.18;;;;;;;;;;6251671;28;20017;-80
2022/05/19 03:43:19;;;;;;;14.88;5.95;;;;;;;;;;6251777;28;20025;-80
2022/05/19 03:46:19;;;;;;;10.02;4.15;;;;;;;;;;6251838;28;20044;-80
2022/05/19 03:49:20;;;;;;;11.80;4.10;;;;;;;;;;6250611;28;20079;-80
2022/05/19 03:52:20;;;;;;;14.13;4.82;;;;;;;;;;6252565;28;20099;-80
2022/05/19 03:55:20;;;;;;;12.32;4.95;;;;;;;;;;6244440;28;20054;-80
2022/05/19 03:58:21;;;;;;;14.98;5.15;;;;;;;;;;6247899;28;20017;-80
2022/05/19 04:01:21;;;;;;;12.68;5.65;;;;;;;;;;6251601;28;20018;-80
2022/05/19 04:04:21;;;;;;;16.77;5.90;;;;;;;;;;6255259;28;20044;-80
2022/05/19 04:07:22;;;;;;;18.33;5.93;;;;;;;;;;6257300;28;20037;-80
2022/05/19 04:10:22;;;;;;;13.35;5.15;;;;;;;;;;6262199;28;20029;-81
2022/05/19 04:13:22;;;;;;;24.90;8.27;;;;;;;;;;6252205;28;20036;-81
2022/05/19 04:16:22;;;;;;;16.20;6.22;;;;;;;;;;6251517;28;20013;-81
2022/05/19 04:19:23;;;;;;;21.17;7.55;;;;;;;;;;6252926;28;20029;-81
2022/05/19 04:22:23;;;;;;;18.02;6.32;;;;;;;;;;6248102;28;20021;-81
2022/05/19 04:25:23;;;;;;;18.88;5.85;;;;;;;;;;6251506;28;20025;-81
2022/05/19 04:28:23;;;;;;;16.92;6.20;;;;;;;;;;6241064;28;20061;-81
2022/05/19 04:31:24;;;;;;;14.30;6.10;;;;;;;;;;6244321;28;20037;-81
2022/05/19 04:34:24;;;;;;;18.80;6.55;;;;;;;;;;6251625;28;20400;-81
2022/05/19 04:37:24;;;;;;;13.27;6.60;;;;;;;;;;6251562;28;20087;-81
2022/05/19 04:40:25;;;;;;;15.13;5.55;;;;;;;;;;6250858;28;20043;-80
2022/05/19 04:43:26;;;;;;;15.80;5.47;;;;;;;;;;6252297;28;20029;-80
2022/05/19 04:46:26;;;;;;;20.10;7.28;;;;;;;;;;6249724;28;20029;-80
2022/05/19 04:49:26;;;;;;;22.08;7.93;;;;;;;;;;6249017;28;20025;-80
2022/05/19 04:52:26;;;;;;;16.60;5.75;;;;;;;;;;6250027;28;20026;-80
2022/05/19 04:55:27;;;;;;;12.55;5.28;;;;;;;;;;6247671;28;20102;-80
2022/05/19 04:58:27;;;;;;;13.10;6.28;;;;;;;;;;6244058;28;20021;-80
2022/05/19 05:01:27;;;;;;;15.50;6.45;;;;;;;;;;6249098;28;20440;-80
2022/05/19 05:04:27;;;;;;;16.00;5.53;;;;;;;;;;6249608;28;20104;-80
2022/05/19 05:07:28;;;;;;;15.15;4.93;;;;;;;;;;6249877;28;20061;-80
2022/05/19 05:10:28;;;;;;;11.13;4.63;;;;;;;;;;6250118;28;20029;-80
2022/05/19 05:13:29;;;;;;;13.70;5.50;;;;;;;;;;6249762;28;20021;-81
2022/05/19 05:16:29;;;;;;;14.68;4.72;;;;;;;;;;6251194;28;20023;-81
2022/05/19 05:19:29;;;;;;;12.83;4.57;;;;;;;;;;6249850;28;20021;-79
2022/05/19 05:22:34;;;;;;;12.32;5.10;;;;;;;;;;6249674;28;20256;-79
2022/05/19 05:25:34;;;;;;;12.40;5.82;;;;;;;;;;6248871;28;20484;-79
2022/05/19 05:28:35;;;;;;;11.40;4.50;;;;;;;;;;6247614;28;20056;-79
2022/05/19 05:31:36;;;;;;;13.73;4.10;;;;;;;;;;6241392;28;20030;-79
2022/05/19 05:34:36;;;;;;;10.10;4.53;;;;;;;;;;6243599;28;20033;-79
2022/05/19 05:37:36;;;;;;;11.93;4.20;;;;;;;;;;6244323;28;20047;-80
2022/05/19 05:40:37;;;;;;;7.77;4.07;;;;;;;;;;6246891;28;20040;-80
2022/05/19 05:43:39;;;;;;;8.10;4.07;;;;;;;;;;6246354;28;20553;-80
2022/05/19 05:46:40;;;;;;;11.02;4.40;;;;;;;;;;6248491;28;20029;-80
2022/05/19 05:49:40;;;;;;;9.82;4.43;;;;;;;;;;6245602;28;20199;-80
2022/05/19 05:52:40;;;;;;;9.30;4.27;;;;;;;;;;6247899;28;20018;-80
2022/05/19 05:55:40;;;;;;;9.03;4.73;;;;;;;;;;6242973;28;20128;-80
2022/05/19 05:58:41;;;;;;;9.93;4.70;;;;;;;;;;6235045;28;20072;-80
2022/05/19 06:01:41;;;;;;;8.57;4.27;;;;;;;;;;6247035;28;20024;-80
2022/05/19 06:04:41;;;;;;;12.93;4.13;;;;;;;;;;6247094;28;20481;-79
2022/05/19 06:07:42;;;;;;;15.27;5.07;;;;;;;;;;6246961;28;20021;-79
2022/05/19 06:10:42;;;;;;;13.67;4.70;;;;;;;;;;6248759;28;20081;-79
2022/05/19 06:13:43;;;;;;;8.77;4.15;;;;;;;;;;6248766;28;20028;-79
2022/05/19 06:16:44;;;;;;;7.38;3.72;;;;;;;;;;6242276;28;20018;-79
2022/05/19 06:19:44;;;;;;;11.98;4.05;;;;;;;;;;6249419;28;20022;-80
2022/05/19 06:22:46;;;;;;;11.00;4.53;;;;;;;;;;6245906;28;20067;-80
2022/05/19 06:25:46;;;;;;;12.38;4.43;;;;;;;;;;6246701;28;20263;-80
2022/05/19 06:28:47;;;;;;;13.75;4.53;;;;;;;;;;6247855;28;20010;-80
2022/05/19 06:31:47;;;;;;;;;;;;;;;;;;6241053;28;20052;-81
2022/05/19 06:34:47;;;;;;;10.40;4.50;;;;;;;;;;6248308;28;20386;-81
2022/05/19 06:37:48;;;;;;;;;;;;;;;;;;6249384;28;20020;-80
2022/05/19 06:40:48;;;;;;;10.75;4.70;;;;;;;;;;6250635;28;19909;-81
2022/05/19 06:43:48;;;;;;;14.67;5.23;;;;;;;;;;6248210;28;20017;-81
2022/05/19 06:46:48;;;;;;;10.73;3.93;;;;;;;;;;6247954;28;20446;-81
2022/05/19 06:49:51;;;;;;;10.00;3.93;;;;;;;;;;6247209;28;20067;-81
2022/05/19 06:52:53;;;;;;;9.50;4.45;;;;;;;;;;6239934;28;20073;-81
2022/05/19 06:55:54;;;;;;;13.05;4.38;;;;;;;;;;6247271;28;20032;-81
2022/05/19 06:58:54;;;;;;;8.77;3.80;;;;;;;;;;6239898;28;20112;-81
2022/05/19 07:01:54;;;;;;;7.67;2.87;;;;;;;;;;6248107;28;20021;-81
2022/05/19 07:04:54;;;;;;;6.27;2.70;;;;;;;;;;6247272;28;20036;-81
2022/05/19 07:07:55;;;;;;;8.73;2.83;;;;;;;;;;6247571;28;20108;-81
2022/05/19 07:10:55;;;;;;;7.67;2.73;;;;;;;;;;6249782;28;20025;-81
2022/05/19 07:14:00;;;;;;;3.87;2.23;;;;;;;;;;6253744;28;20025;-81
2022/05/19 07:17:01;;;;;;;4.75;2.00;;;;;;;;;;6252072;28;20029;-80
2022/05/19 07:23:24;;;;;;;6.03;3.53;;;;;;;;;;6252933;28;20030;-81
2022/05/19 07:26:26;;;;;;;6.30;1.83;;;;;;;;;;6250195;28;20034;-80
2022/05/19 07:29:27;;;;;;;9.77;2.70;;;;;;;;;;6263046;28;20029;-80
2022/05/19 07:32:27;;;;;;;6.25;2.58;;;;;;;;;;6261704;28;20013;-80
2022/05/19 07:35:28;;;;;;;11.32;3.00;;;;;;;;;;6248571;28;20021;-80
2022/05/19 07:38:28;;;;;;;10.85;2.92;;;;;;;;;;6236859;28;20031;-80
2022/05/19 07:41:29;;;;;;;8.60;2.43;;;;;;;;;;6251879;28;20040;-80
2022/05/19 07:44:30;;;;;;;5.93;2.10;;;;;;;;;;6247516;28;20056;-80
2022/05/19 07:47:30;;;;;;;8.85;2.63;;;;;;;;;;6247921;28;20403;-80
2022/05/19 07:50:31;;;;;;;;;;;;;;;;;;6257940;28;20021;-80
2022/05/19 07:53:31;;;;;;;8.02;2.50;;;;;;;;;;6250296;28;19920;-80
2022/05/19 07:56:31;;;;;;;;;;;;;;;;;;6249281;28;20079;-80
2022/05/19 07:59:32;;;;;;;6.88;2.35;;;;;;;;;;6251091;28;19967;-81
2022/05/19 08:02:32;;;;;;;;;;;;;;;;;;6247217;28;20022;-81
2022/05/19 08:05:32;;;;;;;8.23;2.20;;;;;;;;;;6248556;28;20385;-80
2022/05/19 08:08:33;;;;;;;;;;;;;;;;;;6250119;28;20363;-80
2022/05/19 08:11:33;;;;;;;6.50;2.67;;;;;;;;;;6248615;28;19920;-81
2022/05/19 08:17:52;;;;;;;7.63;3.13;;;;;;;;;;6249132;28;20033;-80
2022/05/19 08:21:00;;;;;;;4.37;2.43;;;;;;;;;;6248829;28;20053;-81
2022/05/19 08:24:00;;;;;;;6.40;2.58;;;;;;;;;;6250838;28;20446;-80
2022/05/19 08:27:02;;;;;;;16.07;3.17;;;;;;;;;;6235190;28;20018;-80
2022/05/19 08:30:02;;;;;;;5.53;2.65;;;;;;;;;;6249270;28;20075;-80
2022/05/19 08:33:06;;;;;;;12.15;2.53;;;;;;;;;;6245685;28;20371;-81
2022/05/19 08:36:07;;;;;;;10.75;2.92;;;;;;;;;;6246147;28;20017;-80
2022/05/19 08:39:07;;;;;;;7.80;2.60;;;;;;;;;;6245490;28;20093;-81
2022/05/19 08:42:08;;;;;;;9.07;2.60;;;;;;;;;;6243505;28;20021;-81
2022/05/19 08:45:18;;;;;;;6.45;2.72;;;;;;;;;;6246116;28;20029;-81
2022/05/19 08:48:19;;;;;;;4.32;2.20;;;;;;;;;;6247157;28;20087;-80
2022/05/19 08:51:22;;;;;;;9.00;2.80;;;;;;;;;;6250435;28;20111;-80
2022/05/19 08:54:23;;;;;;;6.03;2.75;;;;;;;;;;6246158;28;20053;-80
2022/05/19 08:57:39;;;;;;;5.63;2.17;;;;;;;;;;6247115;28;20021;-80
2022/05/19 09:00:57;;;;;;;3.78;1.85;;;;;;;;;;6249417;28;20021;-80
2022/05/19 09:03:57;;;;;;;4.97;1.85;;;;;;;;;;6250474;28;20021;-80
2022/05/19 09:10:40;;;;;;;4.95;2.33;;;;;;;;;;6238829;28;20033;-80
2022/05/19 09:13:41;;;;;;;4.50;2.17;;;;;;;;;;6244712;28;20045;-80
2022/05/19 09:16:42;;;;;;;12.77;2.87;;;;;;;;;;6249071;28;20358;-80
2022/05/19 09:19:45;;;;;;;16.48;3.78;;;;;;;;;;6248609;28;20031;-80
2022/05/19 09:22:46;;;;;;;11.05;3.20;;;;;;;;;;6247391;28;20052;-80
2022/05/19 09:25:51;;;;;;;5.03;1.83;;;;;;;;;;6245813;28;20069;-80
2022/05/19 09:28:56;;;;;;;3.40;1.73;;;;;;;;;;6247284;28;20049;-80
2022/05/19 09:32:06;;;;;;;8.30;2.90;;;;;;;;;;6247513;28;20385;-81
2022/05/19 09:35:23;;;;;;;5.60;1.85;;;;;;;;;;6248334;28;20025;-80
2022/05/19 09:38:32;;;;;;;7.43;2.10;;;;;;;;;;6249309;28;20025;-81
2022/05/19 09:41:35;;;;;;;6.72;2.35;;;;;;;;;;6249752;28;20346;-81
2022/05/19 09:44:38;;;;;;;6.18;2.15;;;;;;;;;;6248834;28;20222;-80
2022/05/19 09:47:40;;;;;;;8.00;2.53;;;;;;;;;;6248898;28;20393;-81
2022/05/19 09:50:45;;;;;;;6.63;2.38;;;;;;;;;;6250046;28;20025;-80
2022/05/19 09:53:57;;;;;;;7.05;1.85;;;;;;;;;;6238837;28;20053;-80
2022/05/19 09:56:57;;;;;;;;;;;;;;;;;;6241527;28;20473;-80
2022/05/19 09:59:59;;;;;;;6.97;2.08;;;;;;;;;;6248180;28;20404;-81
2022/05/19 10:03:00;;;;;;;3.60;1.52;;;;;;;;;;6247727;28;20477;-82
2022/05/19 10:06:08;;;;;;;7.20;1.88;;;;;;;;;;6247441;28;20024;-81
2022/05/19 10:09:10;;;;;;;5.75;2.47;;;;;;;;;;6241456;28;20028;-82
2022/05/19 10:12:13;;;;;;;5.88;2.00;;;;;;;;;;6244048;28;20048;-81
2022/05/19 10:15:15;;;;;;;4.30;1.88;;;;;;;;;;6244310;28;20025;-82
2022/05/19 10:18:21;;;;;;;4.65;2.45;;;;;;;;;;6246835;28;20079;-82
2022/05/19 10:21:33;;;;;;;3.88;1.95;;;;;;;;;;6240459;28;20389;-81
2022/05/19 10:24:45;;;;;;;5.30;2.10;;;;;;;;;;6243818;28;20071;-81
2022/05/19 10:31:39;;;;;;;6.75;2.10;;;;;;;;;;6247193;28;20021;-81
2022/05/19 10:34:40;;;;;;;7.78;2.28;;;;;;;;;;6245476;28;20032;-81
2022/05/19 10:37:40;;;;;;;4.43;1.60;;;;;;;;;;6246125;28;20063;-81
2022/05/19 10:40:49;;;;;;;5.40;2.00;;;;;;;;;;6244497;28;20013;-81
2022/05/19 10:43:56;;;;;;;4.70;1.73;;;;;;;;;;6244457;28;20044;-81
2022/05/19 10:47:14;;;;;;;7.32;1.63;;;;;;;;;;6241597;28;20040;-82
2022/05/19 10:50:21;;;;;;;6.28;2.00;;;;;;;;;;6247589;28;20022;-81
2022/05/19 10:53:40;;;;;;;25.42;2.58;;;;;;;;;;6245296;28;20041;-82
2022/05/19 10:57:01;;;;;;;5.28;2.00;;;;;;;;;;6244752;28;20428;-82
2022/05/19 11:00:07;;;;;;;7.55;2.50;;;;;;;;;;6244590;28;20030;-82
2022/05/19 11:03:24;;;;;;;3.58;1.73;;;;;;;;;;6247520;28;20026;-82
2022/05/19 11:06:36;;;;;;;3.47;2.08;;;;;;;;;;6245392;28;20048;-82
2022/05/19 11:09:57;;;;;;;4.85;2.38;;;;;;;;;;6240842;28;20036;-82
2022/05/19 11:13:33;;;;;;;9.55;2.80;;;;;;;;;;6247140;28;20101;-83
2022/05/19 11:16:39;;;;;;;7.75;2.85;;;;;;;;;;6212312;28;20022;-82
2022/05/19 11:19:43;;;;;;;4.75;2.22;;;;;;;;;;6249689;28;20006;-82
2022/05/19 11:22:46;;;;;;;4.05;2.03;;;;;;;;;;6242901;28;20037;-82
2022/05/19 11:29:14;;;;;;;4.28;2.33;;;;;;;;;;6247585;28;20037;-82
2022/05/19 11:32:18;;;;;;;5.88;2.88;;;;;;;;;;6247085;28;20021;-82
2022/05/19 11:35:24;;;;;;;10.02;3.75;;;;;;;;;;6246544;28;20089;-82
2022/05/19 11:38:41;;;;;;;5.10;2.50;;;;;;;;;;6248204;28;20017;-82
2022/05/19 11:41:42;;;;;;;6.13;2.50;;;;;;;;;;6243926;28;20600;-82
2022/05/19 11:44:43;;;;;;;6.32;2.25;;;;;;;;;;6247193;28;20722;-82
2022/05/19 11:58:20;;;;;;;4.47;2.30;;;;;;;;;;6246341;28;20144;-82
2022/05/19 12:01:23;;;;;;;5.18;1.95;;;;;;;;;;6249232;28;20093;-82
2022/05/19 12:04:27;;;;;;;8.68;2.13;;;;;;;;;;6252624;28;20390;-82
2022/05/19 12:07:36;;;;;;;4.65;1.90;;;;;;;;;;6251666;28;20044;-82
2022/05/19 12:10:38;;;;;;;6.47;2.38;;;;;;;;;;6245999;28;20025;-82
2022/05/19 12:13:43;;;;;;;6.30;1.92;;;;;;;;;;6256549;28;20036;-82
2022/05/19 12:16:51;;;;;;;4.82;2.08;;;;;;;;;;6269705;28;20029;-81
2022/05/19 12:20:02;;;;;;;5.43;2.35;;;;;;;;;;6268020;28;20028;-82
2022/05/19 12:23:15;;;;;;;3.17;1.65;;;;;;;;;;6263309;28;20029;-82
2022/05/19 12:26:15;;;;;;;5.97;2.38;;;;;;;;;;6251956;28;20052;-82
2022/05/19 12:29:23;;;;;;;5.10;2.47;;;;;;;;;;6270871;28;20021;-81
2022/05/19 12:32:34;;;;;;;5.10;2.10;;;;;;;;;;6255110;28;20056;-82
2022/05/19 12:35:35;;;;;;;5.78;1.88;;;;;;;;;;6240335;28;20096;-82
2022/05/19 12:38:35;;;;;;;;;;;;;;;;;;6256334;28;20025;-81
2022/05/19 12:41:55;;;;;;;3.70;1.57;;;;;;;;;;6254482;28;19909;-82
2022/05/19 12:44:56;;;;;;;5.63;2.08;;;;;;;;;;6253297;28;20397;-82
2022/05/19 12:47:59;;;;;;;6.72;2.20;;;;;;;;;;6254615;28;20161;-82
2022/05/19 12:51:04;;;;;;;5.40;1.65;;;;;;;;;;6254130;28;20026;-81
2022/05/19 12:54:08;;;;;;;5.90;1.90;;;;;;;;;;6256305;28;20037;-81
2022/05/19 12:57:08;;;;;;;4.22;1.60;;;;;;;;;;6259426;28;20085;-81
2022/05/19 13:00:10;;;;;;;22.27;2.30;;;;;;;;;;6269022;28;20025;-82
2022/05/19 13:03:16;;;;;;;4.82;1.65;;;;;;;;;;6249698;28;20021;-82
2022/05/19 13:06:22;;;;;;;3.17;1.83;;;;;;;;;;6249771;28;20025;-81
2022/05/19 13:09:28;;;;;;;6.22;1.55;;;;;;;;;;6256048;28;20032;-83
2022/05/19 13:12:33;;;;;;;4.60;2.08;;;;;;;;;;6251289;28;20113;-82
2022/05/19 13:15:44;;;;;;;3.85;1.85;;;;;;;;;;6250795;28;20025;-82
2022/05/19 13:18:50;;;;;;;4.97;1.50;;;;;;;;;;6252671;28;20025;-82
2022/05/19 13:21:58;;;;;;;3.25;1.70;;;;;;;;;;6258891;28;20010;-82
2022/05/19 13:25:02;;;;;;;5.80;1.55;;;;;;;;;;6253860;28;20071;-82
2022/05/19 13:31:47;;;;;;;4.00;2.22;;;;;;;;;;6258309;28;20022;-83
2022/05/19 13:34:49;;;;;;;5.43;2.38;;;;;;;;;;6258327;28;20445;-83
2022/05/19 13:37:52;;;;;;;5.22;1.60;;;;;;;;;;6249236;28;20120;-83
2022/05/19 13:40:55;;;;;;;2.92;1.63;;;;;;;;;;6252643;28;20032;-84
2022/05/19 13:43:56;;;;;;;5.43;1.58;;;;;;;;;;6238192;28;20037;-82
2022/05/19 13:46:57;;;;;;;3.85;1.50;;;;;;;;;;6257473;28;20043;-83
2022/05/19 13:49:58;;;;;;;3.20;1.60;;;;;;;;;;6261068;28;20018;-83
2022/05/19 13:53:04;;;;;;;4.30;1.40;;;;;;;;;;6250028;28;20025;-83
2022/05/19 13:56:04;;;;;;;3.97;1.58;;;;;;;;;;6242209;28;20055;-82
2022/05/19 13:59:06;;;;;;;4.07;1.40;;;;;;;;;;6247312;28;20018;-82
2022/05/19 14:02:09;;;;;;;7.57;1.63;;;;;;;;;;6253155;28;20021;-82
2022/05/19 14:05:21;;;;;;;3.08;1.63;;;;;;;;;;6240591;28;20426;-81
2022/05/19 14:08:22;;;;;;;2.65;1.30;;;;;;;;;;6243913;28;20465;-81
2022/05/19 14:11:22;;;;;;;2.75;1.67;;;;;;;;;;6249007;28;20017;-82
2022/05/19 14:14:23;;;;;;;3.45;1.83;;;;;;;;;;6247950;28;20033;-82
2022/05/19 14:17:25;;;;;;;5.60;1.50;;;;;;;;;;6243283;28;20035;-82
2022/05/19 14:20:49;;;;;;;10.10;2.15;;;;;;;;;;6234659;28;20036;-81
2022/05/19 14:23:52;;;;;;;3.92;2.05;;;;;;;;;;6238312;28;20091;-81
2022/05/19 14:26:54;;;;;;;3.53;1.55;;;;;;;;;;6241191;28;20013;-81
2022/05/19 14:29:54;;;;;;;4.53;1.95;;;;;;;;;;6243637;28;20065;-82
2022/05/19 14:33:00;;;;;;;3.23;1.43;;;;;;;;;;6243256;28;20057;-81
2022/05/19 14:36:04;;;;;;;10.60;1.67;;;;;;;;;;6245836;28;20087;-81
2022/05/19 14:39:09;;;;;;;12.32;2.00;;;;;;;;;;6245314;28;20029;-82
2022/05/19 14:45:34;;;;;;;2.65;1.50;;;;;;;;;;6247398;28;20468;-82
2022/05/19 14:48:38;;;;;;;4.82;1.60;;;;;;;;;;6247302;28;20481;-81
2022/05/19 14:51:40;;;;;;;2.53;1.52;;;;;;;;;;6241554;28;20374;-81
2022/05/19 14:54:40;;;;;;;4.70;1.13;;;;;;;;;;6236587;28;20152;-81
2022/05/19 14:57:41;;;;;;;5.25;1.55;;;;;;;;;;6245791;28;20022;-81
2022/05/19 15:00:41;;;;;;;6.57;1.77;;;;;;;;;;6246139;28;20023;-81
2022/05/19 15:03:41;;;;;;;3.87;1.30;;;;;;;;;;6246019;28;20754;-83
2022/05/19 15:06:42;;;;;;;6.63;1.50;;;;;;;;;;6252513;28;20010;-81
2022/05/19 15:09:42;;;;;;;3.33;1.47;;;;;;;;;;6248651;28;20014;-81
2022/05/19 15:12:43;;;;;;;2.30;1.20;;;;;;;;;;6248179;28;20022;-81
2022/05/19 15:15:43;;;;;;;2.72;1.95;;;;;;;;;;6249443;28;20484;-81
2022/05/19 15:18:43;;;;;;;;;;;;;;;;;;6248590;28;20355;-81
2022/05/19 15:21:43;;;;;;;2.60;1.35;;;;;;;;;;6248364;28;19905;-81
2022/05/19 15:24:53;;;;;;;;;;;;;;;;;;6245121;28;20018;-82
2022/05/19 15:27:53;;;;;;;2.88;1.30;;;;;;;;;;6234011;28;19905;-82
2022/05/19 15:30:53;;;;;;;;;;;;;;;;;;6244922;28;20025;-82
2022/05/19 15:33:53;;;;;;;5.55;1.25;;;;;;;;;;6251403;28;19912;-82
2022/05/19 15:36:54;;;;;;;;;;;;;;;;;;6256092;28;20013;-82
2022/05/19 15:39:54;;;;;;;3.53;1.13;;;;;;;;;;6253477;28;19917;-82
2022/05/19 15:42:54;;;;;;;3.53;1.20;;;;;;;;;;6251083;28;20014;-82
2022/05/19 15:45:57;;;;;;;;;;;;;;;;;;6253072;28;20469;-82
2022/05/19 15:48:58;;;;;;;4.93;1.77;;;;;;;;;;6242809;28;19905;-82
2022/05/19 15:51:58;;;;;;;7.27;2.20;;;;;;;;;;6244653;28;20029;-82
2022/05/19 15:54:58;;;;;;;1.43;0.97;;;;;;;;;;6244796;28;20041;-82
2022/05/19 15:57:58;;;;;;;2.90;1.50;;;;;;;;;;6244249;28;20445;-81
2022/05/19 16:01:00;;;;;;;3.90;1.40;;;;;;;;;;6240256;28;20128;-82
2022/05/19 16:04:01;;;;;;;3.38;1.65;;;;;;;;;;6249235;28;20474;-82
2022/05/19 16:07:01;;;;;;;9.07;2.40;;;;;;;;;;6249580;28;20010;-82
2022/05/19 16:10:02;;;;;;;2.83;1.50;;;;;;;;;;6245733;28;20005;-82
2022/05/19 16:13:02;;;;;;;3.03;1.30;;;;;;;;;;6249308;28;20039;-80
2022/05/19 16:16:03;;;;;;;2.97;1.38;;;;;;;;;;6249716;28;20044;-80
2022/05/19 16:19:03;;;;;;;3.42;1.38;;;;;;;;;;6250761;28;20014;-81
2022/05/19 16:22:07;;;;;;;2.87;1.40;;;;;;;;;;6248183;28;20018;-82
2022/05/19 16:25:09;;;;;;;6.22;1.42;;;;;;;;;;6242414;28;20025;-82
2022/05/19 16:28:09;;;;;;;3.72;1.80;;;;;;;;;;6248315;28;20060;-83
2022/05/19 16:31:10;;;;;;;4.10;1.80;;;;;;;;;;6250510;28;20362;-82
2022/05/19 16:34:10;;;;;;;2.70;1.45;;;;;;;;;;6244502;28;20016;-82
2022/05/19 16:37:15;;;;;;;2.80;1.53;;;;;;;;;;6250248;28;20025;-82
2022/05/19 16:40:15;;;;;;;4.07;1.35;;;;;;;;;;6247148;28;20370;-80
2022/05/19 16:43:16;;;;;;;5.63;1.87;;;;;;;;;;6242120;28;20045;-80
2022/05/19 16:46:18;;;;;;;6.30;1.88;;;;;;;;;;6240787;28;20029;-80
2022/05/19 16:49:19;;;;;;;4.85;2.10;;;;;;;;;;6246058;28;20029;-80
2022/05/19 16:52:19;;;;;;;3.10;1.85;;;;;;;;;;6246174;28;20434;-81
2022/05/19 16:58:39;;;;;;;5.65;1.83;;;;;;;;;;6247875;28;20033;-81
2022/05/19 17:01:39;;;;;;;2.87;1.40;;;;;;;;;;6248270;28;20032;-80
2022/05/19 17:04:40;;;;;;;3.75;1.33;;;;;;;;;;6251271;28;20028;-82
2022/05/19 17:07:40;;;;;;;2.77;1.60;;;;;;;;;;6250923;28;20017;-82
2022/05/19 17:10:44;;;;;;;4.70;1.88;;;;;;;;;;6252029;28;20041;-82
2022/05/19 17:13:46;;;;;;;6.43;1.98;;;;;;;;;;6249202;28;20026;-82
2022/05/19 17:16:47;;;;;;;8.98;2.20;;;;;;;;;;6248046;28;20021;-82
2022/05/19 17:19:47;;;;;;;6.87;2.27;;;;;;;;;;6249157;28;20032;-81
2022/05/19 17:22:50;;;;;;;4.30;1.50;;;;;;;;;;6241966;28;20026;-82
2022/05/19 17:25:50;;;;;;;8.98;1.98;;;;;;;;;;6245369;28;20493;-82
2022/05/19 17:28:50;;;;;;;3.03;1.90;;;;;;;;;;6244560;28;20017;-82
2022/05/19 17:31:51;;;;;;;3.80;1.83;;;;;;;;;;6251745;28;20233;-83
2022/05/19 17:34:51;;;;;;;7.67;2.00;;;;;;;;;;6256140;28;20044;-82
2022/05/19 17:37:55;;;;;;;6.77;1.57;;;;;;;;;;6260906;28;20016;-82
2022/05/19 17:40:55;;;;;;;4.20;2.20;;;;;;;;;;6254167;28;20056;-82
2022/05/19 17:43:55;;;;;;;4.93;1.67;;;;;;;;;;6253421;28;20112;-83
2022/05/19 17:46:56;;;;;;;6.50;3.20;;;;;;;;;;6256771;28;20018;-82
2022/05/19 17:49:56;;;;;;;4.93;2.90;;;;;;;;;;6252015;28;20032;-82
2022/05/19 17:52:57;;;;;;;10.03;3.57;;;;;;;;;;6246030;28;20032;-82
2022/05/19 17:55:58;;;;;;;9.18;3.95;;;;;;;;;;6246497;28;20080;-82
2022/05/19 17:58:58;;;;;;;9.67;4.90;;;;;;;;;;6251645;28;20096;-82
2022/05/19 18:02:00;;;;;;;11.60;3.97;;;;;;;;;;6236837;28;20161;-80
2022/05/19 18:05:00;;;;;;;;;;;;;;;;;;6251610;28;20547;-81
2022/05/19 18:08:01;;;;;;;6.43;3.72;;;;;;;;;;6250697;28;19909;-82
2022/05/19 18:11:01;;;;;;;8.73;4.13;;;;;;;;;;6250159;28;20670;-82
2022/05/19 18:14:02;;;;;;;11.87;4.27;;;;;;;;;;6253505;28;20048;-81
2022/05/19 18:20:22;;;;;;;7.47;3.65;;;;;;;;;;6250301;28;20532;-81
2022/05/19 18:23:23;;;;;;;9.73;3.57;;;;;;;;;;6247732;28;20045;-81
2022/05/19 18:26:24;;;;;;;6.50;3.25;;;;;;;;;;6252263;28;20060;-81
2022/05/19 18:29:24;;;;;;;5.72;3.15;;;;;;;;;;6247826;28;20017;-82
2022/05/19 18:32:25;;;;;;;7.07;3.03;;;;;;;;;;6248399;28;20045;-82
2022/05/19 18:35:26;;;;;;;8.23;3.10;;;;;;;;;;6226551;28;20056;-80
2022/05/19 18:38:27;;;;;;;7.30;3.53;;;;;;;;;;6251732;28;20029;-81
2022/05/19 18:44:57;;;;;;;7.70;3.80;;;;;;;;;;6245609;28;20049;-81
2022/05/19 18:47:59;;;;;;;5.80;3.23;;;;;;;;;;6241561;28;20025;-80
2022/05/19 18:50:59;;;;;;;8.32;3.35;;;;;;;;;;6244359;28;20021;-80
2022/05/19 18:54:00;;;;;;;25.37;5.53;;;;;;;;;;6250016;28;20049;-80
2022/05/19 18:57:00;;;;;;;7.17;3.90;;;;;;;;;;6242014;28;20010;-80
2022/05/19 19:00:02;;;;;;;9.57;3.47;;;;;;;;;;6248995;28;20032;-80